Time;durP1;ratioP1;P1;durP2;ratioP2;P2;SDS_P1;SDS_P2;PMS_P1;PMS_P2;Temp;Humidity;BMP_temperature;BMP_pressure;BME280_temperature;BME280_humidity;BME280_pressure;Samples;Min_cycle;Max_cycle;Signal;HPM_P1;HPM_P2
2023/07/24 00:00:16;;;;;;;16.40;10.82;;;;;;;;;;2080827;28;20404;-94
2023/07/24 00:01:17;;;;;;;16.85;11.25;;;;;;;;;;2080905;28;20025;-94
2023/07/24 00:02:18;;;;;;;16.38;10.55;;;;;;;;;;2073102;28;20029;-96
2023/07/24 00:03:18;;;;;;;17.45;11.18;;;;;;;;;;2072700;28;20111;-96
2023/07/24 00:04:19;;;;;;;16.02;10.88;;;;;;;;;;2072714;28;20030;-95
2023/07/24 00:05:19;;;;;;;13.80;10.30;;;;;;;;;;2072778;28;20034;-95
2023/07/24 00:06:22;;;;;;;11.20;9.80;;;;;;;;;;2081257;28;20416;-96
2023/07/24 00:07:23;;;;;;;15.45;9.82;;;;;;;;;;2081010;28;20018;-96
2023/07/24 00:08:23;;;;;;;14.55;9.40;;;;;;;;;;2072768;28;20029;-95
2023/07/24 00:09:25;;;;;;;14.45;11.00;;;;;;;;;;2072661;28;20448;-94
2023/07/24 00:10:25;;;;;;;11.30;9.38;;;;;;;;;;2073143;28;20030;-95
2023/07/24 00:11:26;;;;;;;13.82;9.68;;;;;;;;;;2072517;28;20052;-96
2023/07/24 00:12:27;;;;;;;12.63;9.38;;;;;;;;;;2072678;28;20521;-95
2023/07/24 00:13:27;;;;;;;13.25;9.05;;;;;;;;;;2072658;28;20495;-96
2023/07/24 00:14:27;;;;;;;10.88;8.85;;;;;;;;;;2072422;28;20064;-96
2023/07/24 00:15:29;;;;;;;13.63;8.85;;;;;;;;;;2072588;28;20128;-95
2023/07/24 00:16:29;;;;;;;13.98;9.82;;;;;;;;;;2080756;28;20032;-94
2023/07/24 00:17:29;;;;;;;13.77;9.23;;;;;;;;;;2080489;28;20548;-94
2023/07/24 00:18:31;;;;;;;11.75;9.50;;;;;;;;;;2080742;28;20432;-96
2023/07/24 00:19:31;;;;;;;12.45;9.07;;;;;;;;;;2072523;28;20052;-94
2023/07/24 00:20:31;;;;;;;12.48;9.18;;;;;;;;;;2080619;28;20361;-94
2023/07/24 00:21:32;;;;;;;14.82;8.98;;;;;;;;;;2080192;28;20025;-94
2023/07/24 00:22:32;;;;;;;12.25;8.95;;;;;;;;;;2072429;28;20037;-95
2023/07/24 00:23:33;;;;;;;14.38;9.50;;;;;;;;;;2072571;28;20419;-96
2023/07/24 00:24:33;;;;;;;12.25;8.60;;;;;;;;;;2072465;28;20026;-94
2023/07/24 00:25:34;;;;;;;15.60;9.52;;;;;;;;;;2080664;28;20478;-94
2023/07/24 00:26:34;;;;;;;15.30;8.80;;;;;;;;;;2080519;28;20033;-94
2023/07/24 00:27:35;;;;;;;12.65;9.45;;;;;;;;;;2080684;28;20037;-94
2023/07/24 00:28:35;;;;;;;14.05;9.50;;;;;;;;;;2080848;28;20068;-96
2023/07/24 00:29:36;;;;;;;11.95;9.20;;;;;;;;;;2073372;28;20025;-94
2023/07/24 00:30:36;;;;;;;14.02;10.45;;;;;;;;;;2084145;28;20049;-94
2023/07/24 00:31:36;;;;;;;16.75;11.25;;;;;;;;;;2084981;28;20036;-96
2023/07/24 00:32:37;;;;;;;15.07;10.52;;;;;;;;;;2074158;28;20029;-93
2023/07/24 00:33:39;;;;;;;16.05;11.35;;;;;;;;;;2073510;28;20064;-94
2023/07/24 00:34:39;;;;;;;15.02;11.13;;;;;;;;;;2080969;28;20052;-96
2023/07/24 00:35:40;;;;;;;17.20;11.23;;;;;;;;;;2080422;28;20053;-95
2023/07/24 00:36:40;;;;;;;16.92;11.30;;;;;;;;;;2080322;28;20026;-96
2023/07/24 00:37:41;;;;;;;14.55;10.30;;;;;;;;;;2080309;28;20033;-95
2023/07/24 00:38:41;;;;;;;19.25;11.55;;;;;;;;;;2080453;28;20021;-96
2023/07/24 00:39:42;;;;;;;17.58;11.65;;;;;;;;;;2080302;28;20094;-94
2023/07/24 00:40:42;;;;;;;17.20;11.73;;;;;;;;;;2072239;28;20033;-95
2023/07/24 00:41:43;;;;;;;13.55;10.45;;;;;;;;;;2072394;28;20556;-96
2023/07/24 00:42:48;;;;;;;15.30;11.38;;;;;;;;;;2080253;28;20025;-95
2023/07/24 00:43:48;;;;;;;19.80;11.27;;;;;;;;;;2080353;28;20061;-96
2023/07/24 00:44:49;;;;;;;18.80;11.88;;;;;;;;;;2080532;28;20086;-95
2023/07/24 00:45:49;;;;;;;25.63;13.43;;;;;;;;;;2080588;28;20495;-95
2023/07/24 00:46:50;;;;;;;17.98;12.43;;;;;;;;;;2080588;28;20049;-95
2023/07/24 00:47:51;;;;;;;21.00;11.70;;;;;;;;;;2080726;28;20079;-95
2023/07/24 00:48:53;;;;;;;18.90;11.57;;;;;;;;;;2072527;28;20041;-95
2023/07/24 00:49:55;;;;;;;20.48;12.75;;;;;;;;;;2072629;28;20104;-96
2023/07/24 00:50:56;;;;;;;18.77;11.95;;;;;;;;;;2072385;28;20433;-96
2023/07/24 00:51:56;;;;;;;19.00;12.68;;;;;;;;;;2072371;28;20025;-95
2023/07/24 00:52:57;;;;;;;19.35;11.98;;;;;;;;;;2080540;28;20193;-96
2023/07/24 00:54:01;;;;;;;23.65;12.93;;;;;;;;;;2080432;28;20025;-95
2023/07/24 00:55:01;;;;;;;22.20;12.63;;;;;;;;;;2080707;28;20102;-95
2023/07/24 00:56:02;;;;;;;20.33;13.60;;;;;;;;;;2080529;28;20472;-96
2023/07/24 00:57:04;;;;;;;22.88;12.90;;;;;;;;;;2080392;28;20053;-96
2023/07/24 00:58:04;;;;;;;24.58;13.98;;;;;;;;;;2072635;28;20057;-96
2023/07/24 00:59:05;;;;;;;24.48;14.30;;;;;;;;;;2080236;28;20074;-96
2023/07/24 01:00:06;;;;;;;24.15;14.05;;;;;;;;;;2080641;28;20104;-96
2023/07/24 01:01:07;;;;;;;27.45;13.73;;;;;;;;;;2080279;28;20028;-95
2023/07/24 01:02:08;;;;;;;25.70;14.77;;;;;;;;;;2071958;28;20034;-95
2023/07/24 01:03:09;;;;;;;29.20;14.95;;;;;;;;;;2080267;28;20120;-95
2023/07/24 01:04:09;;;;;;;29.23;15.63;;;;;;;;;;2080371;28;20021;-96
2023/07/24 01:05:17;;;;;;;26.13;13.98;;;;;;;;;;2072307;28;20087;-95
2023/07/24 01:06:17;;;;;;;29.00;15.23;;;;;;;;;;2072929;28;20065;-95
2023/07/24 01:07:18;;;;;;;27.75;14.88;;;;;;;;;;2080362;28;20037;-95
2023/07/24 01:08:18;;;;;;;24.83;14.65;;;;;;;;;;2072363;28;20084;-95
2023/07/24 01:09:22;;;;;;;26.70;15.20;;;;;;;;;;2072160;28;20040;-96
2023/07/24 01:10:22;;;;;;;29.02;16.13;;;;;;;;;;2080520;28;20082;-95
2023/07/24 01:11:48;;;;;;;28.77;16.33;;;;;;;;;;2072413;28;20127;-95
2023/07/24 01:12:54;;;;;;;29.33;16.48;;;;;;;;;;2075695;28;20063;-94
2023/07/24 01:14:17;;;;;;;32.20;16.48;;;;;;;;;;2073077;28;20103;-95
2023/07/24 01:15:37;;;;;;;37.28;17.20;;;;;;;;;;2080435;28;20033;-95
2023/07/24 01:16:41;;;;;;;32.28;17.00;;;;;;;;;;2075143;28;20048;-95
2023/07/24 01:17:49;;;;;;;28.58;15.88;;;;;;;;;;2062317;28;20038;-94
2023/07/24 01:18:52;;;;;;;29.55;16.67;;;;;;;;;;2081222;28;20051;-95
2023/07/24 01:19:57;;;;;;;36.10;17.65;;;;;;;;;;2080622;28;20025;-95
2023/07/24 01:20:59;;;;;;;30.23;16.27;;;;;;;;;;2072951;28;20021;-96
2023/07/24 01:22:17;;;;;;;31.33;14.90;;;;;;;;;;2072196;28;20068;-96
2023/07/24 01:23:26;;;;;;;32.17;16.50;;;;;;;;;;2074521;28;20080;-95
2023/07/24 01:24:58;;;;;;;29.95;16.17;;;;;;;;;;2073198;28;20072;-95
2023/07/24 01:26:02;;;;;;;32.95;16.73;;;;;;;;;;2055622;28;20033;-95
2023/07/24 01:27:02;;;;;;;33.40;16.50;;;;;;;;;;2074021;28;20022;-95
2023/07/24 01:28:09;;;;;;;34.40;16.92;;;;;;;;;;2077844;28;20091;-96
2023/07/24 01:29:09;;;;;;;35.42;18.48;;;;;;;;;;2082875;28;20036;-93
2023/07/24 01:30:11;;;;;;;35.00;17.23;;;;;;;;;;2073838;28;20022;-96
2023/07/24 01:31:12;;;;;;;34.95;17.23;;;;;;;;;;2073822;28;20121;-95
2023/07/24 01:32:12;;;;;;;33.67;16.75;;;;;;;;;;2073956;28;20076;-96
2023/07/24 01:33:14;;;;;;;30.13;16.50;;;;;;;;;;2081912;28;20032;-96
2023/07/24 01:34:14;;;;;;;32.22;16.45;;;;;;;;;;2081982;28;20107;-95
2023/07/24 01:35:18;;;;;;;28.83;17.25;;;;;;;;;;2081891;28;20483;-95
2023/07/24 01:36:19;;;;;;;31.02;16.77;;;;;;;;;;2082084;28;20033;-95
2023/07/24 01:37:22;;;;;;;35.97;17.65;;;;;;;;;;2073373;28;20040;-95
2023/07/24 01:38:27;;;;;;;39.22;18.58;;;;;;;;;;2082022;28;20029;-96
2023/07/24 01:39:29;;;;;;;33.90;17.27;;;;;;;;;;2074182;28;20057;-96
2023/07/24 01:40:30;;;;;;;37.13;17.77;;;;;;;;;;2073829;28;20030;-96
2023/07/24 01:41:31;;;;;;;34.17;16.48;;;;;;;;;;2081773;28;20067;-95
2023/07/24 01:42:33;;;;;;;32.85;16.70;;;;;;;;;;2074471;28;20124;-95
2023/07/24 01:43:34;;;;;;;30.98;17.15;;;;;;;;;;2078480;28;20026;-96
2023/07/24 01:44:34;;;;;;;36.70;19.30;;;;;;;;;;2088948;28;20021;-95
2023/07/24 01:45:35;;;;;;;32.55;17.17;;;;;;;;;;2091669;28;20009;-96
2023/07/24 01:46:37;;;;;;;36.25;18.00;;;;;;;;;;2083954;28;20018;-96
2023/07/24 01:47:38;;;;;;;34.50;17.75;;;;;;;;;;2079141;28;20335;-95
2023/07/24 01:48:39;;;;;;;37.70;16.83;;;;;;;;;;2074727;28;20084;-95
2023/07/24 01:49:39;;;;;;;33.97;17.50;;;;;;;;;;2074078;28;20037;-95
2023/07/24 01:50:40;;;;;;;34.47;17.65;;;;;;;;;;2073889;28;20065;-95
2023/07/24 01:51:40;;;;;;;35.65;18.67;;;;;;;;;;2073650;28;20151;-95
2023/07/24 01:52:41;;;;;;;34.50;17.88;;;;;;;;;;2073780;28;20124;-95
2023/07/24 01:53:41;;;;;;;36.10;18.17;;;;;;;;;;2073543;28;20416;-95
2023/07/24 01:54:42;;;;;;;39.05;18.42;;;;;;;;;;2073363;28;20056;-95
2023/07/24 01:55:45;;;;;;;35.50;17.70;;;;;;;;;;2073569;28;20017;-94
2023/07/24 01:56:46;;;;;;;34.65;18.65;;;;;;;;;;2073584;28;20032;-95
2023/07/24 01:57:46;;;;;;;33.67;17.85;;;;;;;;;;2081966;28;20029;-96
2023/07/24 01:58:47;;;;;;;35.97;17.75;;;;;;;;;;2073582;28;20036;-96
2023/07/24 01:59:48;;;;;;;37.17;18.40;;;;;;;;;;2081666;28;20041;-96
2023/07/24 02:00:49;;;;;;;38.97;19.42;;;;;;;;;;2073590;28;20472;-95
2023/07/24 02:01:58;;;;;;;37.67;19.20;;;;;;;;;;2073438;28;20029;-95
2023/07/24 02:02:59;;;;;;;41.58;19.98;;;;;;;;;;2074701;28;20026;-95
2023/07/24 02:03:59;;;;;;;45.17;20.23;;;;;;;;;;2081196;28;20041;-95
2023/07/24 02:05:00;;;;;;;37.47;19.63;;;;;;;;;;2080959;28;20040;-94
2023/07/24 02:06:00;;;;;;;44.00;20.70;;;;;;;;;;2082128;28;20038;-94
2023/07/24 02:07:00;;;;;;;40.72;19.63;;;;;;;;;;2086813;28;20413;-95
2023/07/24 02:08:01;;;;;;;41.55;19.88;;;;;;;;;;2073687;28;20369;-96
2023/07/24 02:09:04;;;;;;;36.75;20.35;;;;;;;;;;2073927;28;20424;-95
2023/07/24 02:10:07;;;;;;;38.33;19.85;;;;;;;;;;2081461;28;20036;-95
2023/07/24 02:11:08;;;;;;;39.47;18.90;;;;;;;;;;2074010;28;20022;-95
2023/07/24 02:12:08;;;;;;;41.45;20.85;;;;;;;;;;2073555;28;20428;-95
2023/07/24 02:13:09;;;;;;;38.83;20.05;;;;;;;;;;2083329;28;20389;-95
2023/07/24 02:14:11;;;;;;;36.75;18.90;;;;;;;;;;2087056;28;20017;-95
2023/07/24 02:15:11;;;;;;;36.33;19.85;;;;;;;;;;2085235;28;20033;-95
2023/07/24 02:16:12;;;;;;;42.22;21.35;;;;;;;;;;2082204;28;20477;-96
2023/07/24 02:17:17;;;;;;;36.35;19.45;;;;;;;;;;2075509;28;20037;-93
2023/07/24 02:18:17;;;;;;;38.97;20.92;;;;;;;;;;2077765;28;20115;-93
2023/07/24 02:19:18;;;;;;;35.88;18.95;;;;;;;;;;2083180;28;20471;-94
2023/07/24 02:20:18;;;;;;;38.38;19.52;;;;;;;;;;2081638;28;20037;-96
2023/07/24 02:21:18;;;;;;;35.35;19.75;;;;;;;;;;2081312;28;20099;-96
2023/07/24 02:22:19;;;;;;;34.50;18.98;;;;;;;;;;2073650;28;20025;-95
2023/07/24 02:23:19;;;;;;;36.03;18.25;;;;;;;;;;2073445;28;20512;-95
2023/07/24 02:24:20;;;;;;;36.88;19.92;;;;;;;;;;2081513;28;20032;-95
2023/07/24 02:25:20;;;;;;;36.72;18.65;;;;;;;;;;2072863;28;20493;-95
2023/07/24 02:26:21;;;;;;;39.90;19.70;;;;;;;;;;2073388;28;20033;-95
2023/07/24 02:27:27;;;;;;;39.15;19.92;;;;;;;;;;2081573;28;20037;-95
2023/07/24 02:28:27;;;;;;;37.03;20.77;;;;;;;;;;2081495;28;20120;-95
2023/07/24 02:29:28;;;;;;;38.83;20.48;;;;;;;;;;2073265;28;20108;-96
2023/07/24 02:30:28;;;;;;;43.70;22.02;;;;;;;;;;2081441;28;20022;-95
2023/07/24 02:31:28;;;;;;;37.92;20.83;;;;;;;;;;2081382;28;20083;-96
2023/07/24 02:32:29;;;;;;;39.72;21.25;;;;;;;;;;2073442;28;20163;-95
2023/07/24 02:33:29;;;;;;;44.65;21.48;;;;;;;;;;2073456;28;20052;-96
2023/07/24 02:34:30;;;;;;;42.22;21.20;;;;;;;;;;2073366;28;20520;-96
2023/07/24 02:35:30;;;;;;;44.42;21.98;;;;;;;;;;2073763;28;20038;-95
2023/07/24 02:36:31;;;;;;;43.13;23.25;;;;;;;;;;2074205;28;20038;-95
2023/07/24 02:37:31;;;;;;;43.30;22.20;;;;;;;;;;2072482;28;20351;-95
2023/07/24 02:38:32;;;;;;;49.35;21.88;;;;;;;;;;2073231;28;20037;-95
2023/07/24 02:39:32;;;;;;;45.92;23.40;;;;;;;;;;2073170;28;20049;-96
2023/07/24 02:40:33;;;;;;;43.50;22.85;;;;;;;;;;2073129;28;20048;-95
2023/07/24 02:41:34;;;;;;;44.30;21.35;;;;;;;;;;2072999;28;20090;-96
2023/07/24 02:42:35;;;;;;;43.97;21.17;;;;;;;;;;2073194;28;20025;-95
2023/07/24 02:43:36;;;;;;;46.33;23.50;;;;;;;;;;2081567;28;20133;-95
2023/07/24 02:44:37;;;;;;;46.00;22.42;;;;;;;;;;2081414;28;20083;-95
2023/07/24 02:45:37;;;;;;;50.08;22.92;;;;;;;;;;2081716;28;20048;-95
2023/07/24 02:46:38;;;;;;;53.90;24.23;;;;;;;;;;2073002;28;20026;-94
2023/07/24 02:47:38;;;;;;;52.75;23.40;;;;;;;;;;2081409;28;20029;-94
2023/07/24 02:48:39;;;;;;;52.45;24.40;;;;;;;;;;2073469;28;20038;-95
2023/07/24 02:49:39;;;;;;;60.53;25.50;;;;;;;;;;2073108;28;20057;-96
2023/07/24 02:50:40;;;;;;;58.22;23.85;;;;;;;;;;2081482;28;20026;-95
2023/07/24 02:51:40;;;;;;;59.75;25.55;;;;;;;;;;2073583;28;20573;-95
2023/07/24 02:52:41;;;;;;;60.83;24.85;;;;;;;;;;2073646;28;20030;-95
2023/07/24 02:53:41;;;;;;;62.35;27.38;;;;;;;;;;2082237;28;20028;-94
2023/07/24 02:54:41;;;;;;;55.70;25.83;;;;;;;;;;2081419;28;20048;-94
2023/07/24 02:55:43;;;;;;;64.10;27.05;;;;;;;;;;2082434;28;20034;-94
2023/07/24 02:56:43;;;;;;;60.28;25.83;;;;;;;;;;2082123;28;20036;-92
2023/07/24 02:57:44;;;;;;;59.78;27.42;;;;;;;;;;2074124;28;20109;-95
2023/07/24 02:58:44;;;;;;;62.40;26.70;;;;;;;;;;2081996;28;20116;-94
2023/07/24 02:59:45;;;;;;;63.05;25.88;;;;;;;;;;2097066;28;20107;-91
2023/07/24 03:00:45;;;;;;;69.32;28.77;;;;;;;;;;2089029;28;20038;-95
2023/07/24 03:01:46;;;;;;;64.10;26.35;;;;;;;;;;2081666;28;20132;-96
2023/07/24 03:02:46;;;;;;;68.78;27.90;;;;;;;;;;2081715;28;20025;-96
2023/07/24 03:03:47;;;;;;;65.57;27.25;;;;;;;;;;2073666;28;20119;-95
2023/07/24 03:04:47;;;;;;;64.80;25.52;;;;;;;;;;2081928;28;20021;-94
2023/07/24 03:05:47;;;;;;;58.25;24.83;;;;;;;;;;2082573;28;20120;-93
2023/07/24 03:06:48;;;;;;;58.25;24.83;;;;;;;;;;2082631;28;20132;-93
2023/07/24 03:07:49;;;;;;;70.45;28.48;;;;;;;;;;2073027;28;20029;-96
2023/07/24 03:08:52;;;;;;;62.25;25.98;;;;;;;;;;2073132;28;20038;-96
2023/07/24 03:11:21;;;;;;;84.75;28.70;;;;;;;;;;2088680;22;20133;-94
2023/07/24 03:12:21;;;;;;;70.32;26.65;;;;;;;;;;2081790;28;20504;-94
2023/07/24 03:13:22;;;;;;;64.60;26.52;;;;;;;;;;2081193;28;20036;-94
2023/07/24 03:14:22;;;;;;;63.67;25.95;;;;;;;;;;2073073;28;20025;-95
2023/07/24 03:15:23;;;;;;;67.35;26.83;;;;;;;;;;2081120;28;20033;-95
2023/07/24 03:16:23;;;;;;;57.65;25.70;;;;;;;;;;2072586;28;20485;-94
2023/07/24 03:17:24;;;;;;;59.20;25.80;;;;;;;;;;2072397;28;20493;-95
2023/07/24 03:18:25;;;;;;;52.97;24.30;;;;;;;;;;2072885;28;20029;-94
2023/07/24 03:19:25;;;;;;;53.08;24.65;;;;;;;;;;2072921;28;20502;-94
2023/07/24 03:20:26;;;;;;;49.00;23.10;;;;;;;;;;2072914;28;20033;-95
2023/07/24 03:21:26;;;;;;;54.75;24.38;;;;;;;;;;2072881;28;20119;-94
2023/07/24 03:22:27;;;;;;;51.90;23.65;;;;;;;;;;2072750;28;20029;-93
2023/07/24 03:23:27;;;;;;;57.67;26.70;;;;;;;;;;2073838;28;20040;-95
2023/07/24 03:24:31;;;;;;;54.05;24.35;;;;;;;;;;2080914;28;20172;-95
2023/07/24 03:25:35;;;;;;;54.78;23.45;;;;;;;;;;1721246;28;10169621;-95
2023/07/24 03:26:35;;;;;;;52.75;26.20;;;;;;;;;;2073177;28;20079;-96
2023/07/24 03:27:36;;;;;;;52.40;24.65;;;;;;;;;;2072933;28;20099;-96
2023/07/24 03:28:37;;;;;;;50.63;23.77;;;;;;;;;;2072675;28;20030;-96
2023/07/24 03:29:37;;;;;;;52.38;24.52;;;;;;;;;;2081212;28;20489;-96
2023/07/24 03:30:38;;;;;;;89.20;29.83;;;;;;;;;;2081603;28;20056;-96
2023/07/24 03:31:38;;;;;;;111.85;31.02;;;;;;;;;;2080858;28;20064;-95
2023/07/24 03:32:41;;;;;;;112.28;30.48;;;;;;;;;;2081360;28;20562;-95
2023/07/24 03:33:42;;;;;;;97.82;28.75;;;;;;;;;;2081023;28;20083;-94
2023/07/24 03:34:42;;;;;;;105.00;33.70;;;;;;;;;;2080951;28;20108;-96
2023/07/24 03:35:43;;;;;;;115.63;30.50;;;;;;;;;;2080967;28;20496;-95
2023/07/24 03:36:43;;;;;;;115.70;31.02;;;;;;;;;;2081030;28;20406;-96
2023/07/24 03:37:44;;;;;;;123.35;31.45;;;;;;;;;;2080885;28;20144;-95
2023/07/24 03:38:44;;;;;;;103.80;31.67;;;;;;;;;;2080962;28;20029;-95
2023/07/24 03:39:44;;;;;;;106.57;30.17;;;;;;;;;;2081081;28;20060;-94
2023/07/24 03:40:45;;;;;;;110.10;30.92;;;;;;;;;;2072644;28;20135;-94
2023/07/24 03:41:45;;;;;;;102.63;30.92;;;;;;;;;;2081353;28;20156;-94
2023/07/24 03:42:46;;;;;;;110.38;32.70;;;;;;;;;;2081846;28;20095;-93
2023/07/24 03:43:46;;;;;;;103.60;30.98;;;;;;;;;;2084493;28;20033;-94
2023/07/24 03:44:47;;;;;;;97.63;31.55;;;;;;;;;;2085448;28;20041;-94
2023/07/24 03:45:47;;;;;;;89.15;28.45;;;;;;;;;;2079998;28;20044;-95
2023/07/24 03:46:48;;;;;;;91.03;29.70;;;;;;;;;;2077739;28;20501;-96
2023/07/24 03:47:48;;;;;;;72.10;26.55;;;;;;;;;;2074222;28;20025;-93
2023/07/24 03:48:50;;;;;;;82.82;28.77;;;;;;;;;;2084162;28;20566;-95
2023/07/24 03:49:51;;;;;;;79.90;30.38;;;;;;;;;;2082239;28;20044;-94
2023/07/24 03:50:59;;;;;;;86.55;29.95;;;;;;;;;;2073292;28;20080;-94
2023/07/24 03:52:00;;;;;;;81.30;28.63;;;;;;;;;;2081313;28;20500;-94
2023/07/24 03:53:00;;;;;;;81.82;30.70;;;;;;;;;;2080824;28;20041;-95
2023/07/24 03:54:08;;;;;;;90.28;30.15;;;;;;;;;;2060978;28;20694;-95
2023/07/24 03:55:10;;;;;;;93.03;30.88;;;;;;;;;;2081384;28;20021;-95
2023/07/24 03:56:10;;;;;;;88.43;31.65;;;;;;;;;;2073026;28;20014;-95
2023/07/24 03:57:11;;;;;;;80.13;29.17;;;;;;;;;;2073502;28;20559;-94
2023/07/24 03:58:13;;;;;;;84.03;29.23;;;;;;;;;;2081643;28;20485;-96
2023/07/24 03:59:19;;;;;;;81.97;28.65;;;;;;;;;;2073945;28;20028;-96
2023/07/24 04:00:19;;;;;;;91.97;29.92;;;;;;;;;;2081295;28;20438;-96
2023/07/24 04:10:06;;;;;;;93.10;30.83;;;;;;;;;;2310007;22;20054;-96
2023/07/24 04:11:06;;;;;;;107.22;31.08;;;;;;;;;;2064421;28;20038;-96
2023/07/24 04:12:09;;;;;;;95.85;31.20;;;;;;;;;;2056487;28;20038;-96
2023/07/24 04:13:09;;;;;;;104.10;32.42;;;;;;;;;;2056672;28;20093;-96
2023/07/24 04:14:10;;;;;;;99.07;30.40;;;;;;;;;;2056488;28;20113;-95
2023/07/24 04:15:10;;;;;;;114.35;33.35;;;;;;;;;;2056388;28;20025;-95
2023/07/24 04:16:11;;;;;;;116.13;32.80;;;;;;;;;;2064203;28;20043;-96
2023/07/24 04:17:11;;;;;;;110.72;33.05;;;;;;;;;;2064389;28;20034;-95
2023/07/24 04:18:12;;;;;;;110.70;30.60;;;;;;;;;;2056602;28;20030;-96
2023/07/24 04:19:13;;;;;;;116.40;33.65;;;;;;;;;;2056600;28;20037;-96
2023/07/24 04:20:13;;;;;;;110.75;30.63;;;;;;;;;;2064425;28;20088;-95
2023/07/24 04:21:13;;;;;;;104.72;32.90;;;;;;;;;;2056352;28;20434;-95
2023/07/24 04:22:14;;;;;;;114.13;32.60;;;;;;;;;;2056399;28;20098;-95
2023/07/24 04:23:15;;;;;;;105.47;31.52;;;;;;;;;;2056750;28;20117;-95
2023/07/24 04:24:15;;;;;;;107.47;29.85;;;;;;;;;;2056386;28;20133;-95
2023/07/24 04:25:16;;;;;;;111.95;30.33;;;;;;;;;;2056420;28;20524;-95
2023/07/24 04:26:16;;;;;;;115.28;33.55;;;;;;;;;;2056541;28;20061;-94
2023/07/24 04:27:17;;;;;;;122.43;31.90;;;;;;;;;;2056383;28;20478;-95
2023/07/24 04:28:17;;;;;;;130.85;32.75;;;;;;;;;;2064487;28;20486;-94
2023/07/24 04:29:18;;;;;;;116.60;30.70;;;;;;;;;;2056718;28;20031;-96
2023/07/24 04:30:18;;;;;;;118.30;30.48;;;;;;;;;;2064875;28;20040;-93
2023/07/24 04:31:19;;;;;;;136.27;31.30;;;;;;;;;;2070091;28;20151;-94
2023/07/24 04:32:19;;;;;;;118.75;30.23;;;;;;;;;;2073075;28;20030;-92
2023/07/24 04:33:19;;;;;;;128.13;30.92;;;;;;;;;;2065532;28;20022;-93
2023/07/24 04:34:20;;;;;;;125.63;31.23;;;;;;;;;;2065034;28;20520;-95
2023/07/24 04:35:20;;;;;;;127.60;31.92;;;;;;;;;;2064928;28;20050;-95
2023/07/24 04:36:21;;;;;;;117.30;31.98;;;;;;;;;;2059387;28;20090;-93
2023/07/24 04:37:21;;;;;;;126.68;30.90;;;;;;;;;;2059610;28;20066;-94
2023/07/24 04:38:22;;;;;;;123.07;31.98;;;;;;;;;;2057352;28;20114;-96
2023/07/24 04:39:23;;;;;;;124.55;32.65;;;;;;;;;;2056347;28;20112;-96
2023/07/24 04:40:24;;;;;;;120.68;30.88;;;;;;;;;;2057013;28;20035;-96
2023/07/24 04:41:24;;;;;;;129.45;31.92;;;;;;;;;;2048667;28;20031;-95
2023/07/24 04:42:25;;;;;;;138.40;34.00;;;;;;;;;;2057103;28;20027;-96
2023/07/24 04:43:28;;;;;;;129.45;33.55;;;;;;;;;;2064732;28;20096;-95
2023/07/24 04:44:28;;;;;;;124.65;32.42;;;;;;;;;;2057305;28;20027;-95
2023/07/24 04:45:29;;;;;;;127.80;31.80;;;;;;;;;;2056630;28;20030;-95
2023/07/24 04:46:29;;;;;;;132.15;32.35;;;;;;;;;;2056736;28;20055;-96
2023/07/24 04:47:30;;;;;;;125.38;30.88;;;;;;;;;;2056600;28;20033;-96
2023/07/24 04:48:30;;;;;;;144.95;35.28;;;;;;;;;;2064392;28;20101;-96
2023/07/24 04:49:34;;;;;;;142.02;35.67;;;;;;;;;;1712831;28;9999960;-96
2023/07/24 04:50:35;;;;;;;150.35;35.90;;;;;;;;;;2056889;28;20039;-96
2023/07/24 04:51:35;;;;;;;148.48;37.00;;;;;;;;;;2056653;28;20032;-96
2023/07/24 04:52:36;;;;;;;143.80;37.58;;;;;;;;;;2048158;29;20041;-96
2023/07/24 04:53:36;;;;;;;149.07;36.10;;;;;;;;;;2051020;29;20034;-96
2023/07/24 04:54:49;;;;;;;153.02;35.58;;;;;;;;;;2056926;28;20027;-96
2023/07/24 04:55:49;;;;;;;156.35;34.67;;;;;;;;;;2057988;28;20023;-96
2023/07/24 04:56:50;;;;;;;148.02;36.20;;;;;;;;;;2064130;28;20045;-93
2023/07/24 04:57:53;;;;;;;147.38;33.35;;;;;;;;;;2056380;28;20030;-95
2023/07/24 04:58:54;;;;;;;154.10;36.78;;;;;;;;;;2064400;28;20018;-96
2023/07/24 04:59:56;;;;;;;146.10;34.38;;;;;;;;;;2056250;28;20019;-96
2023/07/24 05:01:04;;;;;;;153.02;37.33;;;;;;;;;;2058126;28;20034;-96
2023/07/24 05:02:04;;;;;;;146.52;35.03;;;;;;;;;;2058994;28;20475;-96
2023/07/24 05:03:06;;;;;;;149.65;36.60;;;;;;;;;;2057368;28;20054;-96
2023/07/24 05:04:06;;;;;;;151.25;35.80;;;;;;;;;;2057903;28;20512;-95
2023/07/24 05:05:08;;;;;;;152.13;36.78;;;;;;;;;;2065744;28;20022;-96
2023/07/24 05:06:16;;;;;;;148.25;34.78;;;;;;;;;;2066515;28;20525;-95
2023/07/24 05:07:16;;;;;;;146.30;34.13;;;;;;;;;;2065889;28;20076;-96
2023/07/24 05:08:16;;;;;;;149.50;36.28;;;;;;;;;;2065641;28;20026;-95
2023/07/24 05:09:17;;;;;;;144.07;36.13;;;;;;;;;;2065948;28;20133;-96
2023/07/24 05:10:18;;;;;;;142.93;34.97;;;;;;;;;;2057600;28;20023;-96
2023/07/24 05:11:18;;;;;;;150.07;35.47;;;;;;;;;;2057765;28;20081;-96
2023/07/24 05:12:19;;;;;;;158.23;34.05;;;;;;;;;;2058117;28;20060;-95
2023/07/24 05:13:19;;;;;;;158.65;36.38;;;;;;;;;;2066514;28;20184;-96
2023/07/24 05:14:22;;;;;;;152.27;37.83;;;;;;;;;;2066788;28;20406;-95
2023/07/24 05:15:23;;;;;;;134.30;32.97;;;;;;;;;;2058647;28;20030;-96
2023/07/24 05:16:31;;;;;;;144.75;34.05;;;;;;;;;;2059718;28;20111;-96
2023/07/24 05:17:31;;;;;;;131.35;33.03;;;;;;;;;;1719159;28;10253001;-95
2023/07/24 05:18:32;;;;;;;143.50;35.60;;;;;;;;;;2067495;28;20015;-95
2023/07/24 05:19:32;;;;;;;143.60;36.60;;;;;;;;;;2058684;28;20054;-96
2023/07/24 05:20:36;;;;;;;135.65;33.72;;;;;;;;;;2066271;28;20026;-95
2023/07/24 05:21:36;;;;;;;139.23;35.53;;;;;;;;;;1714724;28;10001506;-93
2023/07/24 05:22:37;;;;;;;139.40;33.40;;;;;;;;;;2065644;28;20027;-93
2023/07/24 05:23:38;;;;;;;130.90;36.20;;;;;;;;;;2065609;28;20034;-95
2023/07/24 05:24:38;;;;;;;130.52;33.15;;;;;;;;;;2070195;28;20021;-95
2023/07/24 05:25:40;;;;;;;131.25;33.40;;;;;;;;;;2075602;28;20114;-93
2023/07/24 05:26:41;;;;;;;125.43;32.63;;;;;;;;;;2076015;28;20026;-95
2023/07/24 05:27:41;;;;;;;125.38;32.47;;;;;;;;;;2076213;28;20046;-94
2023/07/24 05:28:42;;;;;;;134.90;34.88;;;;;;;;;;2075242;28;20014;-94
2023/07/24 05:29:43;;;;;;;127.80;34.15;;;;;;;;;;2063946;28;20194;-95
2023/07/24 05:30:43;;;;;;;145.23;35.60;;;;;;;;;;2068840;28;20022;-95
2023/07/24 05:31:44;;;;;;;132.43;34.13;;;;;;;;;;2066947;28;20088;-94
2023/07/24 05:32:44;;;;;;;133.43;34.63;;;;;;;;;;2059216;28;20089;-95
2023/07/24 05:33:45;;;;;;;128.55;33.60;;;;;;;;;;2059207;28;20057;-95
2023/07/24 05:34:45;;;;;;;122.10;32.40;;;;;;;;;;2057834;28;20027;-95
2023/07/24 05:37:42;;;;;;;125.72;36.55;;;;;;;;;;2073790;28;20030;-96
2023/07/24 05:38:43;;;;;;;131.07;34.95;;;;;;;;;;2065725;28;20137;-95
2023/07/24 05:39:43;;;;;;;120.43;33.42;;;;;;;;;;2065308;28;20129;-95
2023/07/24 05:40:43;;;;;;;104.00;30.92;;;;;;;;;;2065644;28;20026;-95
2023/07/24 05:45:38;;;;;;;135.55;34.80;;;;;;;;;;2084395;28;20057;-94
2023/07/24 05:46:39;;;;;;;141.25;36.60;;;;;;;;;;2084061;28;20024;-95
2023/07/24 05:47:41;;;;;;;134.52;34.80;;;;;;;;;;2071019;28;20026;-96
2023/07/24 05:48:42;;;;;;;151.20;37.05;;;;;;;;;;2061855;28;20039;-96
2023/07/24 05:49:42;;;;;;;137.35;34.97;;;;;;;;;;2061622;28;20034;-96
2023/07/24 05:50:43;;;;;;;160.73;37.97;;;;;;;;;;2062338;28;20030;-96
2023/07/24 05:51:43;;;;;;;159.00;38.72;;;;;;;;;;2058987;28;20058;-95
2023/07/24 05:52:43;;;;;;;155.23;38.40;;;;;;;;;;2057861;28;20022;-95
2023/07/24 05:59:44;;;;;;;146.00;37.50;;;;;;;;;;2046644;29;20130;-93
2023/07/24 06:00:44;;;;;;;162.07;39.17;;;;;;;;;;2044081;29;20079;-95
2023/07/24 06:01:45;;;;;;;163.57;39.42;;;;;;;;;;2063162;28;20034;-95
2023/07/24 06:02:45;;;;;;;140.80;36.45;;;;;;;;;;2058225;28;20031;-95
2023/07/24 06:03:46;;;;;;;136.07;33.30;;;;;;;;;;2062431;28;20057;-93
2023/07/24 06:04:49;;;;;;;135.98;35.45;;;;;;;;;;2062433;28;20031;-94
2023/07/24 06:05:54;;;;;;;128.32;33.97;;;;;;;;;;2065782;28;20088;-94
2023/07/24 06:08:23;;;;;;;135.85;36.85;;;;;;;;;;2070187;28;20033;-96
2023/07/24 06:09:24;;;;;;;135.50;34.97;;;;;;;;;;2065631;28;20110;-96
2023/07/24 06:10:24;;;;;;;134.30;34.42;;;;;;;;;;2065569;28;20026;-96
2023/07/24 06:11:26;;;;;;;121.05;32.33;;;;;;;;;;2065768;28;20033;-96
2023/07/24 06:12:27;;;;;;;122.20;33.65;;;;;;;;;;2056516;28;20498;-96
2023/07/24 06:13:27;;;;;;;122.72;32.83;;;;;;;;;;2057500;28;20035;-95
2023/07/24 06:14:28;;;;;;;147.95;37.03;;;;;;;;;;2057611;28;20046;-95
2023/07/24 06:15:28;;;;;;;135.75;34.83;;;;;;;;;;2058280;28;20026;-95
2023/07/24 06:16:29;;;;;;;148.38;36.15;;;;;;;;;;2067977;28;20097;-94
2023/07/24 06:17:30;;;;;;;135.10;35.03;;;;;;;;;;2066494;28;20034;-95
2023/07/24 06:18:30;;;;;;;133.88;34.90;;;;;;;;;;2057196;28;20026;-96
2023/07/24 06:19:31;;;;;;;132.60;35.03;;;;;;;;;;2057708;28;20037;-96